Terminal Aerodrome Forecast
Issued by NWS

Home | Current Version | Previous Version | Text Only | Print | Product List | Glossary Off
Versions: 1 2 3 4 5 6 7 8 9 10 11 12 13 14 15 16 17 18 19

000
FTUS43 KMPX 290855 AAA
TAFRNH
TAF AMD
KRNH 290855Z 2909/3006 05003KT 3SM BR SCT002
      TEMPO 2909/2912 1SM BR BKN003
     FM291330 VRB03KT P6SM SKC=

USA.gov is the U.S. government's official web portal to all federal, state and local government web resources and services.